Antimony, UT

7:39 PM MDT on September 17, 2014 (GMT -0600)
Bryce Canyon | Change Station
CLOSE
Current Station
Airport
Location: Bryce Canyon,
Elevation: 7585 ft
Nearby Weather Stations

Elev 7585 ft 37.71 °N, 112.15 °W | Updated 46 minutes ago

Partly Cloudy
Partly Cloudy
68 °F
Feels Like 68 °F
N
5
Wind Variable Wind from South

Today
High -- | Low -- °F
--% Chance of Precip.
Yesterday
High -- | Low -- °F
Precip. -- in
7:12 AM 7:33 PM
Waning Crescent, 31% visible
Pressure 29.89 in
Visibility 10.0 miles
Clouds Clear
Dew Point 44 °F
Humidity 42%
Rainfall 0.00 in
Snow Depth 0 in , 0 in , 0 in
UV 0 out of 12
Pollen 6.10 out of 12
Air Quality Not available.
Flu Activity Not available.
METAR KBCE 180053Z AUTO 17004KT 10SM CLR 20/07 A3020 RMK AO2 SLP120 T02000067

More Conditions Fewer Conditions

Pressure 29.89 in
Visibility 10.0 miles
Clouds Clear
Dew Point 44 °F
Humidity 42%
Rainfall 0.00 in
Snow Depth 0 in , 0 in , 0 in
UV 0 out of 12
Pollen 6.10 out of 12
Air Quality Not available.
Flu Activity Not available.
METAR KBCE 180053Z AUTO 17004KT 10SM CLR 20/07 A3020 RMK AO2 SLP120 T02000067

More Conditions Fewer Conditions

10-Day Weather Forecast

Almanac

Astronomy

Sep. 17, 2014 Rise Set
Actual Time 7:12 AM MDT 7:33 PM MDT
Civil Twilight 6:45 AM MDT 7:59 PM MDT
Nautical Twilight 6:14 AM MDT 8:30 PM MDT
Astronomical Twilight 5:43 AM MDT 9:01 PM MDT
Moon 1:19 AM MDT (9/17) 3:41 PM MDT (9/17)
Length of Visible Light 13h 13m
Length of Day
12h 21m
Tomorrow will be 2m 25s shorter.
Waning Crescent, 31% of the Moon is Illuminated
Today
Waning Crescent
Sep 24
New
Oct 1
First Quarter
Oct 8
Full
Oct 15
Last Quarter

Today's Extremes

State Highs State Lows

Community

WunderPhotos

Upload Photos

1,754,248 photos uploaded!

Nearby

Snow Depth

Station Depth Elevation
Ben Lomond Trail 0 in 6000 ft
Clear Creek #2 0 in 8300 ft
Hewinta 0 in 9500 ft
Trial Lake 1 in 9960 ft
Merchant Valley 0 in 8750 ft

Earthquake Activity

City Distance Mag. Time & Date
No recent earthquake activity has been reported nearby.
Minimum magnitude displayed is 2.5.

Coastal Water Temperatures

Place Temperature
No Stations Reporting

Nearby Weather Stations